createdAt,value
2023-08-03T00:01:40.178Z,7.88
2023-08-03T00:04:09.743Z,3.78
2023-08-03T00:06:39.371Z,4.05
2023-08-03T00:09:10.364Z,2.88
2023-08-03T00:11:40.104Z,6.05
2023-08-03T00:14:09.701Z,7.60
2023-08-03T00:16:39.267Z,5.20
2023-08-03T00:19:08.819Z,4.80
2023-08-03T00:21:38.337Z,4.80
2023-08-03T00:24:09.190Z,5.18
2023-08-03T00:26:38.647Z,3.75
2023-08-03T00:29:08.203Z,4.00
2023-08-03T00:31:37.735Z,4.15
2023-08-03T00:34:07.287Z,5.70
2023-08-03T00:36:36.763Z,9.65
2023-08-03T00:39:06.857Z,3.47
2023-08-03T00:41:37.878Z,4.63
2023-08-03T00:44:07.408Z,6.90
2023-08-03T00:46:36.951Z,5.82
2023-08-03T00:49:06.644Z,8.18
2023-08-03T00:51:37.693Z,4.35
2023-08-03T00:54:08.573Z,5.55
2023-08-03T00:56:39.786Z,6.00
2023-08-03T00:59:11.538Z,6.05
2023-08-03T01:01:43.185Z,7.15
2023-08-03T01:04:13.204Z,10.52
2023-08-03T01:06:42.895Z,6.65
2023-08-03T01:09:12.584Z,5.95
2023-08-03T01:11:45.710Z,7.18
2023-08-03T01:14:15.712Z,5.70
2023-08-03T01:16:45.317Z,8.93
2023-08-03T01:19:15.850Z,5.65
2023-08-03T01:21:48.296Z,6.38
2023-08-03T01:24:19.171Z,5.38
2023-08-03T01:26:49.916Z,5.37
2023-08-03T01:29:19.446Z,7.45
2023-08-03T01:31:51.513Z,6.30
2023-08-03T01:34:21.035Z,5.13
2023-08-03T01:36:50.645Z,8.13
2023-08-03T01:39:22.900Z,8.02
2023-08-03T01:41:52.525Z,6.10
2023-08-03T01:44:28.336Z,7.78
2023-08-03T01:47:00.834Z,6.93
2023-08-03T01:49:33.711Z,7.55
2023-08-03T01:52:03.288Z,8.48
2023-08-03T01:54:34.166Z,5.03
2023-08-03T01:57:03.722Z,6.57
2023-08-03T01:59:33.316Z,8.82
2023-08-03T02:02:03.035Z,7.15
2023-08-03T02:04:32.663Z,9.10
2023-08-03T02:07:10.810Z,7.90
2023-08-03T02:09:41.636Z,10.15
2023-08-03T02:12:11.658Z,6.50
2023-08-03T02:14:41.141Z,7.07
2023-08-03T02:17:10.821Z,5.93
2023-08-03T02:19:40.554Z,6.15
2023-08-03T02:22:10.191Z,11.70
2023-08-03T02:24:41.143Z,7.13
2023-08-03T02:27:10.683Z,5.32
2023-08-03T02:29:40.206Z,9.80
2023-08-03T02:32:10.290Z,14.88
2023-08-03T02:34:41.267Z,9.30
2023-08-03T02:37:11.159Z,8.77
2023-08-03T02:39:42.609Z,7.65
2023-08-03T02:42:12.640Z,8.23
2023-08-03T02:44:46.359Z,10.13
2023-08-03T02:47:17.208Z,7.15
2023-08-03T02:49:46.876Z,6.88
2023-08-03T02:52:16.466Z,6.65
2023-08-03T02:54:51.809Z,4.40
2023-08-03T02:57:23.827Z,11.43
2023-08-03T02:59:55.371Z,8.70
2023-08-03T03:02:25.989Z,10.05
2023-08-03T03:04:56.612Z,7.60
2023-08-03T03:07:28.336Z,6.25
2023-08-03T03:10:01.822Z,7.85
2023-08-03T03:12:33.045Z,11.48
2023-08-03T03:15:02.800Z,7.90
2023-08-03T03:17:32.322Z,10.70
2023-08-03T03:20:04.670Z,5.90
2023-08-03T03:22:34.321Z,5.75
2023-08-03T03:25:06.736Z,8.38
2023-08-03T03:27:36.263Z,10.48
2023-08-03T03:30:08.096Z,7.32
2023-08-03T03:32:37.763Z,12.15
2023-08-03T03:35:09.231Z,10.82
2023-08-03T03:37:39.354Z,8.57
2023-08-03T03:40:12.755Z,11.20
2023-08-03T03:42:46.337Z,5.78
2023-08-03T03:45:16.091Z,7.88
2023-08-03T03:47:45.959Z,6.57
2023-08-03T03:50:15.813Z,8.80
2023-08-03T03:52:45.639Z,6.18
2023-08-03T03:55:20.902Z,7.03
2023-08-03T03:57:56.280Z,7.50
2023-08-03T04:00:25.870Z,5.13
2023-08-03T04:02:56.196Z,6.30
2023-08-03T04:05:27.765Z,7.97
2023-08-03T04:07:57.324Z,11.93
2023-08-03T04:10:28.240Z,9.60
2023-08-03T04:12:58.293Z,10.65
2023-08-03T04:15:28.329Z,5.70
2023-08-03T04:17:57.885Z,6.50
2023-08-03T04:20:32.575Z,6.90
2023-08-03T04:23:02.092Z,8.13
2023-08-03T04:25:34.305Z,6.57
2023-08-03T04:28:08.079Z,7.13
2023-08-03T04:30:40.647Z,5.22
2023-08-03T04:33:10.993Z,9.43
2023-08-03T04:35:42.192Z,8.32
2023-08-03T04:38:18.747Z,5.25
2023-08-03T04:40:55.635Z,7.90
2023-08-03T04:43:29.379Z,7.07
2023-08-03T04:45:58.997Z,9.18
2023-08-03T04:48:29.700Z,9.43
2023-08-03T04:51:00.300Z,8.00
2023-08-03T04:53:31.165Z,7.07
2023-08-03T04:56:02.479Z,6.05
2023-08-03T04:58:32.574Z,5.38
2023-08-03T05:01:02.780Z,10.60
2023-08-03T05:03:33.534Z,5.55
2023-08-03T05:06:04.950Z,8.25
2023-08-03T05:08:35.676Z,6.32
2023-08-03T05:11:06.576Z,9.05
2023-08-03T05:13:41.414Z,9.40
2023-08-03T05:16:11.786Z,9.52
2023-08-03T05:18:41.592Z,6.68
2023-08-03T05:21:11.932Z,9.13
2023-08-03T05:23:41.969Z,8.00
2023-08-03T05:26:12.902Z,5.88
2023-08-03T05:28:42.540Z,7.90
2023-08-03T05:31:12.094Z,9.35
2023-08-03T05:33:41.697Z,8.63
2023-08-03T05:36:11.802Z,6.88
2023-08-03T05:38:41.379Z,4.07
2023-08-03T05:41:18.321Z,5.03
2023-08-03T05:43:48.610Z,8.20
2023-08-03T05:46:20.317Z,10.45
2023-08-03T05:48:53.327Z,7.43
2023-08-03T05:51:29.343Z,5.10
2023-08-03T05:53:59.880Z,12.60
2023-08-03T05:56:30.741Z,5.88
2023-08-03T05:59:00.373Z,10.18
2023-08-03T06:01:29.948Z,7.82
2023-08-03T06:03:59.477Z,7.93
2023-08-03T06:06:30.254Z,6.68
2023-08-03T06:09:01.652Z,4.13
2023-08-03T06:11:33.949Z,4.57
2023-08-03T06:14:03.672Z,7.25
2023-08-03T06:16:33.321Z,2.47
2023-08-03T06:19:02.983Z,6.30
2023-08-03T06:21:32.489Z,8.95
2023-08-03T06:24:02.592Z,5.40
2023-08-03T06:26:37.866Z,6.07
2023-08-03T06:29:07.858Z,8.95
2023-08-03T06:31:40.981Z,5.10
2023-08-03T06:34:13.809Z,5.25
2023-08-03T06:36:45.299Z,4.75
2023-08-03T06:39:15.082Z,6.38
2023-08-03T06:41:46.153Z,3.88
2023-08-03T06:44:19.375Z,6.15
2023-08-03T06:46:48.908Z,6.85
2023-08-03T06:49:18.427Z,5.95
2023-08-03T06:51:48.104Z,7.28
2023-08-03T06:54:17.804Z,2.88
2023-08-03T06:56:48.685Z,4.57
2023-08-03T06:59:22.207Z,5.03
2023-08-03T07:01:55.993Z,2.70
2023-08-03T07:04:25.476Z,5.90
2023-08-03T07:06:54.942Z,3.30
2023-08-03T07:09:25.617Z,6.38
2023-08-03T07:11:56.554Z,7.38
2023-08-03T07:14:26.066Z,4.53
2023-08-03T07:16:55.522Z,4.68
2023-08-03T07:19:25.050Z,5.85
2023-08-03T07:21:56.792Z,2.47
2023-08-03T07:24:29.232Z,3.53
2023-08-03T07:27:01.456Z,2.97
2023-08-03T07:29:31.461Z,5.03
2023-08-03T07:32:00.977Z,1.75
2023-08-03T07:34:30.754Z,4.30
2023-08-03T07:37:01.742Z,5.32
2023-08-03T07:39:47.734Z,4.55
2023-08-03T07:42:35.931Z,3.90
2023-08-03T07:45:08.233Z,6.05
2023-08-03T07:47:37.950Z,3.80
2023-08-03T07:50:09.508Z,5.15
2023-08-03T07:52:40.367Z,3.35
2023-08-03T07:55:10.857Z,6.95
2023-08-03T07:57:42.138Z,5.78
2023-08-03T08:00:14.166Z,6.03
2023-08-03T08:02:43.808Z,4.28
2023-08-03T08:05:13.657Z,3.60
2023-08-03T08:07:43.607Z,6.70
2023-08-03T08:10:13.411Z,5.85
2023-08-03T08:12:44.770Z,4.47
2023-08-03T08:15:15.224Z,4.25
2023-08-03T08:17:44.710Z,5.97
2023-08-03T08:20:14.727Z,4.97
2023-08-03T08:22:44.237Z,4.90
2023-08-03T08:25:14.159Z,4.18
2023-08-03T08:27:45.192Z,3.70
2023-08-03T08:30:14.833Z,11.70
2023-08-03T08:32:44.293Z,5.03
2023-08-03T08:35:13.942Z,3.10
2023-08-03T08:37:43.509Z,3.47
2023-08-03T08:40:13.970Z,5.78
2023-08-03T08:42:44.878Z,2.55
2023-08-03T08:45:14.396Z,2.15
2023-08-03T08:47:44.075Z,2.55
2023-08-03T08:56:05.503Z,3.35
2023-08-03T09:00:49.113Z,2.53
2023-08-03T09:03:19.320Z,5.95
2023-08-03T09:08:52.864Z,3.92
2023-08-03T09:11:40.132Z,3.20
2023-08-03T09:14:15.503Z,5.70
2023-08-03T09:16:45.221Z,5.07
2023-08-03T09:19:14.743Z,3.33
2023-08-03T09:29:36.039Z,5.03
2023-08-03T09:32:27.319Z,2.60
2023-08-03T09:34:57.370Z,4.35
2023-08-03T09:40:10.716Z,4.47
2023-08-03T09:42:42.307Z,3.47
2023-08-03T09:47:47.213Z,3.63
2023-08-03T09:50:17.102Z,2.63
2023-08-03T09:52:50.327Z,5.05
2023-08-03T09:55:30.518Z,3.03
2023-08-03T09:58:05.573Z,2.35
2023-08-03T10:00:37.086Z,3.05
2023-08-03T10:03:11.651Z,2.38
2023-08-03T10:05:50.062Z,5.78
2023-08-03T10:08:33.406Z,3.05
2023-08-03T10:11:05.143Z,2.88
2023-08-03T10:13:37.670Z,2.13
2023-08-03T10:21:13.801Z,4.10
2023-08-03T10:24:19.075Z,5.97
2023-08-03T10:26:55.520Z,3.05
2023-08-03T10:29:59.468Z,3.72
2023-08-03T10:32:32.517Z,1.40
2023-08-03T10:35:40.946Z,4.25
2023-08-03T10:38:21.025Z,1.45
2023-08-03T10:40:50.503Z,2.30
2023-08-03T10:43:20.042Z,2.78
2023-08-03T10:45:49.586Z,2.13
2023-08-03T10:48:36.030Z,1.77
2023-08-03T10:51:05.913Z,3.25
2023-08-03T10:53:36.069Z,2.13
2023-08-03T10:56:12.103Z,1.25
2023-08-03T10:58:48.829Z,4.05
2023-08-03T11:01:24.864Z,2.40
2023-08-03T11:03:56.710Z,3.45
2023-08-03T11:06:27.591Z,1.60
2023-08-03T11:09:00.277Z,4.30
2023-08-03T11:11:33.845Z,2.33
2023-08-03T11:14:05.598Z,1.10
2023-08-03T11:16:37.030Z,2.17
2023-08-03T11:19:07.986Z,1.93
2023-08-03T11:21:37.495Z,2.33
2023-08-03T11:24:07.361Z,1.15
2023-08-03T11:26:36.898Z,5.05
2023-08-03T11:29:08.277Z,2.92
2023-08-03T11:31:44.106Z,2.95
2023-08-03T11:34:16.502Z,3.75
2023-08-03T11:39:20.730Z,3.05
2023-08-03T11:41:51.328Z,1.17
2023-08-03T11:44:23.792Z,2.45
2023-08-03T11:47:08.778Z,1.70
2023-08-03T11:49:39.773Z,2.13
2023-08-03T11:52:09.815Z,2.45
2023-08-03T11:54:41.169Z,2.45
2023-08-03T11:57:28.645Z,4.10
2023-08-03T11:59:58.534Z,1.25
2023-08-03T12:02:41.803Z,2.08
2023-08-03T12:05:18.068Z,1.90
2023-08-03T12:10:28.753Z,4.80
2023-08-03T12:13:02.439Z,6.15
2023-08-03T12:15:32.638Z,2.22
2023-08-03T12:18:02.128Z,1.88
2023-08-03T12:20:36.523Z,2.35
2023-08-03T12:23:06.290Z,1.60
2023-08-03T12:25:37.030Z,3.03
2023-08-03T12:28:10.662Z,2.42
2023-08-03T12:30:41.781Z,1.80
2023-08-03T12:33:12.736Z,3.58
2023-08-03T12:35:46.723Z,3.30
2023-08-03T12:38:33.574Z,2.95
2023-08-03T12:41:09.840Z,1.00
2023-08-03T12:43:39.341Z,2.45
2023-08-03T12:46:14.386Z,1.30
2023-08-03T12:48:44.216Z,2.50
2023-08-03T12:51:15.364Z,1.52
2023-08-03T12:53:45.775Z,2.67
2023-08-03T12:56:15.472Z,1.75
2023-08-03T12:58:45.703Z,1.30
2023-08-03T13:01:15.542Z,1.52
2023-08-03T13:03:45.079Z,0.98
2023-08-03T13:06:15.911Z,3.00
2023-08-03T13:08:45.472Z,0.93
2023-08-03T13:11:15.367Z,2.33
2023-08-03T13:13:44.881Z,3.83
2023-08-03T13:16:14.731Z,2.67
2023-08-03T13:18:44.393Z,1.70
2023-08-03T13:21:17.191Z,2.65
2023-08-03T13:23:47.970Z,8.07
2023-08-03T13:26:17.745Z,3.90
2023-08-03T13:28:51.565Z,1.15
2023-08-03T13:31:22.112Z,3.00
2023-08-03T13:33:52.550Z,2.55
2023-08-03T13:36:23.542Z,1.27
2023-08-03T13:38:53.203Z,3.78
2023-08-03T13:41:23.657Z,2.30
2023-08-03T13:43:53.233Z,1.15
2023-08-03T13:46:22.936Z,0.52
2023-08-03T13:48:52.468Z,1.38
2023-08-03T13:51:24.835Z,1.50
2023-08-03T13:53:56.401Z,6.82
2023-08-03T13:58:58.558Z,2.90
2023-08-03T14:04:00.632Z,2.60
2023-08-03T14:06:32.191Z,3.30
2023-08-03T14:11:58.761Z,2.20
2023-08-03T14:16:57.444Z,1.85
2023-08-03T14:19:27.478Z,1.52
2023-08-03T14:21:59.019Z,2.70
2023-08-03T14:24:29.366Z,4.53
2023-08-03T14:26:58.833Z,1.30
2023-08-03T14:29:28.317Z,1.88
2023-08-03T14:31:57.809Z,0.98
2023-08-03T14:35:35.726Z,1.30
2023-08-03T14:37:18.076Z,1.27
2023-08-03T14:39:48.121Z,3.78
2023-08-03T14:42:17.746Z,0.88
2023-08-03T14:44:51.135Z,1.13
2023-08-03T14:47:21.270Z,4.50
2023-08-03T14:52:25.297Z,2.42
2023-08-03T14:54:55.437Z,2.65
2023-08-03T14:57:25.140Z,1.15
2023-08-03T14:59:55.119Z,2.15
2023-08-03T15:02:26.005Z,1.42
2023-08-03T15:04:56.654Z,1.58
2023-08-03T15:07:27.848Z,1.55
2023-08-03T15:09:59.066Z,0.93
2023-08-03T15:12:28.621Z,2.33
2023-08-03T15:15:09.660Z,0.82
2023-08-03T15:17:40.301Z,4.72
2023-08-03T15:20:12.416Z,1.27
2023-08-03T15:22:44.185Z,1.52
2023-08-03T15:25:14.491Z,3.40
2023-08-03T15:27:58.325Z,2.58
2023-08-03T15:30:58.824Z,3.83
2023-08-03T15:33:21.483Z,1.85
2023-08-03T15:35:52.492Z,2.15
2023-08-03T15:38:24.413Z,0.98
2023-08-03T15:41:02.754Z,2.45
2023-08-03T15:43:40.546Z,1.75
2023-08-03T15:46:19.710Z,1.23
2023-08-03T15:51:24.552Z,1.02
2023-08-03T15:54:05.555Z,1.88
2023-08-03T15:56:39.429Z,2.17
2023-08-03T15:59:09.504Z,2.30
2023-08-03T16:01:39.040Z,2.08
2023-08-03T16:04:08.684Z,2.03
2023-08-03T16:06:38.153Z,1.83
2023-08-03T16:09:09.156Z,1.17
2023-08-03T16:11:53.286Z,3.15
2023-08-03T16:14:24.491Z,1.60
2023-08-03T16:16:54.042Z,2.90
2023-08-03T16:19:24.160Z,1.58
2023-08-03T16:21:53.922Z,2.67
2023-08-03T16:24:24.837Z,1.63
2023-08-03T16:26:55.092Z,1.85
2023-08-03T16:29:25.773Z,1.27
2023-08-03T16:31:55.540Z,2.40
2023-08-03T16:34:28.025Z,3.50
2023-08-03T16:36:59.063Z,1.83
2023-08-03T16:39:30.010Z,1.90
2023-08-03T16:41:59.574Z,1.52
2023-08-03T16:44:29.068Z,1.30
2023-08-03T16:46:58.532Z,2.05
2023-08-03T16:49:28.346Z,2.45
2023-08-03T16:51:57.927Z,1.77
2023-08-03T16:54:28.864Z,2.15
2023-08-03T16:56:58.351Z,1.75
2023-08-03T16:59:27.848Z,2.05
2023-08-03T17:01:57.400Z,2.30
2023-08-03T17:04:26.923Z,2.67
2023-08-03T17:06:56.722Z,1.80
2023-08-03T17:09:26.257Z,2.55
2023-08-03T17:11:57.490Z,1.70
2023-08-03T17:14:27.512Z,1.15
2023-08-03T17:16:58.006Z,1.45
2023-08-03T17:19:27.675Z,1.85
2023-08-03T17:21:57.430Z,1.27
2023-08-03T17:24:27.209Z,1.88
2023-08-03T17:26:58.244Z,0.95
2023-08-03T17:29:27.732Z,1.20
2023-08-03T17:32:00.216Z,1.63
2023-08-03T17:37:13.122Z,1.63
2023-08-03T17:39:42.687Z,0.80
2023-08-03T17:42:13.616Z,2.58
2023-08-03T17:44:43.125Z,1.52
2023-08-03T17:47:12.664Z,1.98
2023-08-03T17:49:42.224Z,2.47
2023-08-03T17:52:11.815Z,1.25
2023-08-03T17:54:41.418Z,2.58
2023-08-03T17:57:11.478Z,3.20
2023-08-03T17:59:42.314Z,1.75
2023-08-03T18:02:36.171Z,3.05
2023-08-03T18:05:06.997Z,1.88
2023-08-03T18:07:36.483Z,2.25
2023-08-03T18:10:07.092Z,1.90
2023-08-03T18:12:45.817Z,2.70
2023-08-03T18:15:17.016Z,0.98
2023-08-03T18:17:46.618Z,2.15
2023-08-03T18:20:16.679Z,1.88
2023-08-03T18:22:46.182Z,2.10
2023-08-03T18:25:15.845Z,1.13
2023-08-03T18:27:45.396Z,4.60
2023-08-03T18:30:16.313Z,2.35
2023-08-03T18:32:46.660Z,1.63
2023-08-03T18:35:15.929Z,4.75
2023-08-03T18:37:45.212Z,3.83
2023-08-03T18:40:14.843Z,2.50
2023-08-03T18:42:44.383Z,2.38
2023-08-03T18:45:14.176Z,2.05
2023-08-03T18:47:45.184Z,3.42
2023-08-03T18:50:14.890Z,2.70
2023-08-03T18:55:15.398Z,2.10
2023-08-03T18:57:44.919Z,1.98
2023-08-03T19:00:16.283Z,1.42
2023-08-03T19:02:47.316Z,1.15
2023-08-03T19:05:17.127Z,2.00
2023-08-03T19:07:47.624Z,4.00
2023-08-03T19:10:17.242Z,2.67
2023-08-03T19:12:46.819Z,1.77
2023-08-03T19:15:16.674Z,2.80
2023-08-03T19:17:47.574Z,5.05
2023-08-03T19:20:17.217Z,5.63
2023-08-03T19:22:46.696Z,2.47
2023-08-03T19:25:16.455Z,7.05
2023-08-03T19:27:46.103Z,4.50
2023-08-03T19:30:15.656Z,3.38
2023-08-03T19:32:48.194Z,2.15
2023-08-03T19:37:48.355Z,1.63
2023-08-03T19:40:18.045Z,6.53
2023-08-03T19:42:47.613Z,1.30
2023-08-03T19:45:21.364Z,2.85
2023-08-03T19:47:54.324Z,2.58
2023-08-03T19:50:27.485Z,3.45
2023-08-03T19:55:31.089Z,2.72
2023-08-03T20:08:15.893Z,4.65
2023-08-03T20:10:46.496Z,6.57
2023-08-03T20:13:15.966Z,3.30
2023-08-03T20:18:22.138Z,2.83
2023-08-03T20:20:52.001Z,1.60
2023-08-03T20:23:21.542Z,2.30
2023-08-03T20:25:51.000Z,3.42
2023-08-03T20:33:24.790Z,2.60
2023-08-03T20:43:35.810Z,4.57
2023-08-03T20:46:09.868Z,2.63
2023-08-03T20:48:40.946Z,0.85
2023-08-03T20:51:10.765Z,1.50
2023-08-03T20:53:41.488Z,2.30
2023-08-03T20:56:11.277Z,2.05
2023-08-03T20:58:40.914Z,1.52
2023-08-03T21:01:10.554Z,2.28
2023-08-03T21:03:43.203Z,3.75
2023-08-03T21:08:43.408Z,1.40
2023-08-03T21:11:14.846Z,1.23
2023-08-03T21:13:45.499Z,2.53
2023-08-03T21:16:16.512Z,2.65
2023-08-03T21:21:22.843Z,2.63
2023-08-03T21:23:52.460Z,3.08
2023-08-03T21:26:22.128Z,3.05
2023-08-03T21:28:51.910Z,2.78
2023-08-03T21:31:21.722Z,6.75
2023-08-03T21:33:52.840Z,3.33
2023-08-03T21:36:22.534Z,2.80
2023-08-03T21:38:52.526Z,2.85
2023-08-03T21:41:22.115Z,1.63
2023-08-03T21:43:51.757Z,3.58
2023-08-03T21:46:21.774Z,4.30
2023-08-03T21:48:54.314Z,3.85
2023-08-03T21:53:53.697Z,2.70
2023-08-03T21:56:23.386Z,2.47
2023-08-03T21:58:53.118Z,4.38
2023-08-03T22:01:22.831Z,2.28
2023-08-03T22:03:53.860Z,4.18
2023-08-03T22:06:23.886Z,1.92
2023-08-03T22:08:53.507Z,5.15
2023-08-03T22:11:23.402Z,3.25
2023-08-03T22:13:53.041Z,2.33
2023-08-03T22:16:22.830Z,3.35
2023-08-03T22:18:53.892Z,3.15
2023-08-03T22:21:23.564Z,3.78
2023-08-03T22:23:53.212Z,3.08
2023-08-03T22:26:22.980Z,3.25
2023-08-03T22:28:52.668Z,3.50
2023-08-03T22:31:22.311Z,2.63
2023-08-03T22:33:53.341Z,5.28
2023-08-03T22:36:22.993Z,3.75
2023-08-03T22:38:52.655Z,4.43
2023-08-03T22:41:22.284Z,4.53
2023-08-03T22:43:51.868Z,2.88
2023-08-03T22:46:23.068Z,3.17
2023-08-03T22:48:55.626Z,3.13
2023-08-03T22:51:25.399Z,2.50
2023-08-03T22:53:55.044Z,3.47
2023-08-03T22:56:24.688Z,2.88
2023-08-03T22:58:54.322Z,2.40
2023-08-03T23:01:24.785Z,5.20
2023-08-03T23:03:55.974Z,4.93
2023-08-03T23:06:26.993Z,4.75
2023-08-03T23:08:57.463Z,4.78
2023-08-03T23:11:27.257Z,3.28
2023-08-03T23:13:59.946Z,2.08
2023-08-03T23:16:29.648Z,3.38
2023-08-03T23:19:00.626Z,2.22
2023-08-03T23:21:30.186Z,2.75
2023-08-03T23:23:59.841Z,2.13
2023-08-03T23:26:29.312Z,3.28
2023-08-03T23:28:58.883Z,2.63
2023-08-03T23:31:28.606Z,3.78
2023-08-03T23:33:59.560Z,3.80
2023-08-03T23:36:29.096Z,2.65
2023-08-03T23:38:58.635Z,2.35
2023-08-03T23:41:28.064Z,3.50
2023-08-03T23:43:57.592Z,1.77
2023-08-03T23:46:27.118Z,3.08
2023-08-03T23:48:56.609Z,4.22
2023-08-03T23:51:27.468Z,2.10
2023-08-03T23:53:56.927Z,1.60
2023-08-03T23:56:26.388Z,3.65
2023-08-03T23:58:55.815Z,2.70
